Time;durP1;ratioP1;P1;durP2;ratioP2;P2;SDS_P1;SDS_P2;PMS_P1;PMS_P2;Temp;Humidity;BMP_temperature;BMP_pressure;BME280_temperature;BME280_humidity;BME280_pressure;Samples;Min_cycle;Max_cycle;Signal;HPM_P1;HPM_P2
2022/01/14 00:01:55;;;;;;;35.90;13.70;;;6.00;99.90;;;;;;5049187;28;20524;-65
2022/01/14 00:04:21;;;;;;;32.55;14.10;;;5.90;99.90;;;;;;5047934;28;20041;-66
2022/01/14 00:06:47;;;;;;;36.40;13.95;;;6.00;99.90;;;;;;5045109;28;20037;-65
2022/01/14 00:09:14;;;;;;;32.15;13.50;;;7.40;99.90;;;;;;5048135;28;20044;-65
2022/01/14 00:11:46;;;;;;;35.47;13.40;;;5.90;99.90;;;;;;5044260;28;20049;-65
2022/01/14 00:16:41;;;;;;;33.30;12.77;;;5.90;99.90;;;;;;5047433;28;20376;-68
2022/01/14 00:19:07;;;;;;;35.85;14.63;;;5.90;99.90;;;;;;5047284;28;20137;-66
2022/01/14 00:21:35;;;;;;;26.70;13.23;;;5.90;99.90;;;;;;5042006;28;20037;-66
2022/01/14 00:24:07;;;;;;;24.45;12.77;;;5.90;99.90;;;;;;5044802;28;20322;-64
2022/01/14 00:32:15;;;;;;;23.88;11.60;;;5.90;99.90;;;;;;5046758;28;20139;-64
2022/01/14 00:34:41;;;;;;;33.17;12.70;;;5.90;99.90;;;;;;5045462;28;20055;-64
2022/01/14 00:37:07;;;;;;;35.40;12.98;;;5.90;99.90;;;;;;5045558;28;20033;-65
2022/01/14 00:39:32;;;;;;;31.15;14.25;;;5.90;99.90;;;;;;5050868;28;20049;-65
2022/01/14 00:41:58;;;;;;;31.80;13.15;;;5.90;99.90;;;;;;5049303;28;20120;-65
2022/01/14 00:44:24;;;;;;;27.85;12.82;;;5.90;99.90;;;;;;5042454;28;20087;-64
2022/01/14 00:46:50;;;;;;;33.42;13.88;;;5.90;99.90;;;;;;5042542;28;20057;-64
2022/01/14 00:49:18;;;;;;;32.25;13.98;;;5.90;99.90;;;;;;5043151;28;20135;-64
2022/01/14 00:51:43;;;;;;;31.17;13.65;;;5.90;99.90;;;;;;5045550;28;20053;-65
2022/01/14 00:54:09;;;;;;;28.85;12.25;;;5.90;99.90;;;;;;5050857;28;20041;-65
2022/01/14 00:59:14;;;;;;;35.88;14.93;;;5.90;99.90;;;;;;5048077;28;20107;-64
2022/01/14 01:02:01;;;;;;;31.40;15.07;;;5.80;99.90;;;;;;5045461;28;20048;-64
2022/01/14 01:04:35;;;;;;;34.20;14.68;;;5.90;99.90;;;;;;5044565;28;20045;-64
2022/01/14 01:07:03;;;;;;;38.85;14.43;;;5.80;99.90;;;;;;5043112;28;20445;-68
2022/01/14 01:09:30;;;;;;;;;;;5.80;99.90;;;;;;5059725;28;20621;-64
2022/01/14 01:12:11;;;;;;;34.45;14.50;;;5.70;99.90;;;;;;5042887;28;19928;-65
2022/01/14 01:14:51;;;;;;;32.97;14.30;;;5.70;99.90;;;;;;5043783;28;20391;-65
2022/01/14 01:17:17;;;;;;;30.33;13.70;;;5.70;99.90;;;;;;5041353;28;20437;-64
2022/01/14 01:19:43;;;;;;;34.47;14.20;;;5.80;99.90;;;;;;5044603;28;20041;-65
2022/01/14 01:22:09;;;;;;;37.58;14.82;;;5.80;99.90;;;;;;5045820;28;20625;-65
2022/01/14 01:24:35;;;;;;;37.75;14.70;;;5.80;99.90;;;;;;5043668;28;20040;-64
2022/01/14 01:27:07;;;;;;;36.10;14.05;;;5.80;99.90;;;;;;5045465;28;20049;-66
2022/01/14 01:32:02;;;;;;;41.13;15.02;;;5.80;99.90;;;;;;5043565;28;20422;-65
2022/01/14 01:34:27;;;;;;;36.05;14.38;;;5.80;99.90;;;;;;5047946;28;20052;-65
2022/01/14 01:36:57;;;;;;;37.85;14.40;;;5.80;99.90;;;;;;5045036;28;20129;-65
2022/01/14 01:39:25;;;;;;;33.80;13.23;;;5.90;99.90;;;;;;5043083;28;20494;-68
2022/01/14 01:41:56;;;;;;;33.72;14.35;;;6.30;99.90;;;;;;5039562;28;20117;-68
2022/01/14 01:44:24;;;;;;;31.77;13.85;;;5.80;99.90;;;;;;5042194;28;20045;-66
2022/01/14 01:46:51;;;;;;;38.00;14.07;;;5.90;99.90;;;;;;5041798;28;20453;-65
2022/01/14 01:49:20;;;;;;;35.40;14.15;;;6.20;99.90;;;;;;5043476;28;20064;-66
2022/01/14 01:51:47;;;;;;;36.67;13.82;;;5.90;99.90;;;;;;5047717;28;20033;-64
2022/01/14 01:54:14;;;;;;;33.58;13.75;;;5.90;99.90;;;;;;5052760;28;20068;-65
2022/01/14 01:56:40;;;;;;;32.80;13.88;;;5.90;99.90;;;;;;5046793;28;20179;-64
2022/01/14 01:59:06;;;;;;;41.88;14.50;;;5.90;99.90;;;;;;5047838;28;20103;-65
2022/01/14 02:01:32;;;;;;;38.97;15.35;;;5.90;99.90;;;;;;5051824;28;20068;-65
2022/01/14 02:03:58;;;;;;;38.58;15.07;;;5.90;99.90;;;;;;5062201;28;20106;-67
2022/01/14 02:06:24;;;;;;;38.40;14.45;;;5.90;99.90;;;;;;5064680;28;20487;-65
2022/01/14 02:08:50;;;;;;;34.25;15.07;;;5.90;99.90;;;;;;5051693;28;20040;-65
2022/01/14 02:11:17;;;;;;;34.25;14.80;;;5.90;99.90;;;;;;5050010;28;20049;-66
2022/01/14 02:13:43;;;;;;;26.90;14.02;;;5.90;99.90;;;;;;5047549;28;20041;-68
2022/01/14 02:24:34;;;;;;;38.10;15.52;;;5.90;99.90;;;;;;5047240;28;20103;-65
2022/01/14 02:27:01;;;;;;;37.72;16.00;;;6.00;99.90;;;;;;5053133;28;20036;-65
2022/01/14 02:29:27;;;;;;;32.97;14.73;;;6.00;99.90;;;;;;5053233;28;20053;-67
2022/01/14 02:31:53;;;;;;;35.28;15.48;;;6.00;99.90;;;;;;5047045;28;20037;-65
2022/01/14 02:34:19;;;;;;;39.78;14.93;;;5.90;99.90;;;;;;5047522;28;20415;-66
2022/01/14 02:36:47;;;;;;;34.22;16.00;;;6.00;99.90;;;;;;5053325;28;20048;-65
2022/01/14 02:39:15;;;;;;;34.75;14.23;;;6.00;99.90;;;;;;5053549;28;20062;-65
2022/01/14 02:41:42;;;;;;;;;;;6.00;99.90;;;;;;5052829;28;20044;-66
2022/01/14 02:44:17;;;;;;;34.95;16.50;;;6.30;99.90;;;;;;5053204;28;19925;-67
2022/01/14 02:46:52;;;;;;;40.47;16.20;;;6.00;99.90;;;;;;5051038;28;20041;-65
2022/01/14 02:49:18;;;;;;;32.35;15.88;;;5.90;99.90;;;;;;5044415;28;20045;-65
2022/01/14 02:51:43;;;;;;;37.58;17.13;;;6.00;99.90;;;;;;5048844;28;20059;-64
2022/01/14 02:54:20;;;;;;;35.67;15.90;;;6.00;99.90;;;;;;5049046;28;20044;-65
2022/01/14 02:56:49;;;;;;;33.20;17.70;;;6.00;99.90;;;;;;5047177;28;20041;-65
2022/01/14 02:59:19;;;;;;;36.60;17.52;;;6.00;99.90;;;;;;5048306;28;20125;-66
2022/01/14 03:01:47;;;;;;;36.60;17.02;;;6.00;99.90;;;;;;5043663;28;20403;-67
2022/01/14 03:04:15;;;;;;;47.00;17.55;;;6.00;99.90;;;;;;5052236;28;20056;-66
2022/01/14 03:06:42;;;;;;;42.70;19.23;;;6.00;99.90;;;;;;5052649;28;20090;-65
2022/01/14 03:09:08;;;;;;;37.70;16.73;;;6.00;99.90;;;;;;5048767;28;20052;-64
2022/01/14 03:11:39;;;;;;;33.65;15.07;;;6.00;99.90;;;;;;5053096;28;20431;-65
2022/01/14 03:14:06;;;;;;;45.15;17.05;;;6.00;99.90;;;;;;5052913;28;20491;-64
2022/01/14 03:16:38;;;;;;;37.90;16.58;;;6.00;99.90;;;;;;5049617;28;20542;-65
2022/01/14 03:19:08;;;;;;;37.00;17.05;;;6.00;99.90;;;;;;5044093;28;20052;-65
2022/01/14 03:21:40;;;;;;;41.08;16.50;;;6.10;99.90;;;;;;5049591;28;20120;-66
2022/01/14 03:24:21;;;;;;;39.03;17.13;;;6.00;99.90;;;;;;5050728;28;20120;-66
2022/01/14 03:26:49;;;;;;;45.00;17.13;;;6.10;99.90;;;;;;5051183;28;20037;-66
2022/01/14 03:29:16;;;;;;;37.72;16.10;;;6.10;99.90;;;;;;5046428;28;20056;-66
2022/01/14 03:31:44;;;;;;;43.20;16.52;;;5.10;99.90;;;;;;5044458;28;20067;-67
2022/01/14 03:34:10;;;;;;;39.33;18.00;;;6.10;99.90;;;;;;5050183;28;20140;-67
2022/01/14 03:36:35;;;;;;;38.25;16.40;;;6.10;99.90;;;;;;5031899;28;20127;-67
2022/01/14 03:39:02;;;;;;;35.75;16.33;;;6.10;99.90;;;;;;5049715;28;20037;-66
2022/01/14 03:41:27;;;;;;;38.97;18.02;;;6.10;99.90;;;;;;5053203;28;20048;-66
2022/01/14 03:43:53;;;;;;;36.72;17.27;;;6.10;99.90;;;;;;5052612;28;20033;-66
2022/01/14 03:46:18;;;;;;;33.88;16.50;;;6.10;99.90;;;;;;5051812;28;20043;-66
2022/01/14 03:48:44;;;;;;;42.78;17.67;;;6.10;99.90;;;;;;5044303;28;20495;-66
2022/01/14 03:51:12;;;;;;;40.40;17.38;;;6.20;99.90;;;;;;5049135;28;20053;-66
2022/01/14 03:53:38;;;;;;;35.47;17.13;;;6.10;99.90;;;;;;5048557;28;20106;-66
2022/01/14 03:56:04;;;;;;;35.50;16.40;;;6.20;99.90;;;;;;5050788;28;20045;-67
2022/01/14 03:58:29;;;;;;;39.65;17.02;;;6.10;99.90;;;;;;5050491;28;20048;-66
2022/01/14 04:00:55;;;;;;;35.15;17.40;;;6.20;99.90;;;;;;5051567;28;20033;-66
2022/01/14 04:03:20;;;;;;;35.90;18.35;;;6.20;99.90;;;;;;5048017;28;20127;-66
2022/01/14 04:05:46;;;;;;;41.67;17.45;;;6.20;99.90;;;;;;5048745;28;20052;-67
2022/01/14 04:08:11;;;;;;;35.85;17.63;;;6.20;99.90;;;;;;5049718;28;20171;-66
2022/01/14 04:10:37;;;;;;;47.53;18.27;;;6.20;99.90;;;;;;5050367;28;20060;-68
2022/01/14 04:13:11;;;;;;;41.45;17.80;;;6.20;99.90;;;;;;5047993;28;20055;-65
2022/01/14 04:15:37;;;;;;;39.75;17.42;;;6.20;99.90;;;;;;5049316;28;20036;-68
2022/01/14 04:18:07;;;;;;;38.47;17.88;;;6.20;99.90;;;;;;5045323;28;20045;-65
2022/01/14 04:20:34;;;;;;;35.30;17.02;;;6.20;99.90;;;;;;5064223;28;20502;-65
2022/01/14 04:23:00;;;;;;;32.90;17.05;;;6.10;99.90;;;;;;5049418;28;20120;-66
2022/01/14 04:25:25;;;;;;;46.33;17.13;;;6.10;99.90;;;;;;5050110;28;20115;-67
2022/01/14 04:27:51;;;;;;;37.42;16.20;;;6.10;99.90;;;;;;5049413;28;20178;-66
2022/01/14 04:30:18;;;;;;;34.90;17.17;;;6.00;99.90;;;;;;5045052;28;20049;-67
2022/01/14 04:32:44;;;;;;;36.30;16.88;;;6.00;99.90;;;;;;5044818;28;20045;-66
2022/01/14 04:35:10;;;;;;;39.88;17.35;;;6.00;99.90;;;;;;5048688;28;20412;-66
2022/01/14 04:37:35;;;;;;;36.90;17.58;;;5.90;99.90;;;;;;5049370;28;20041;-66
2022/01/14 04:40:01;;;;;;;38.53;17.15;;;5.90;99.90;;;;;;5049742;28;20033;-67
2022/01/14 04:42:28;;;;;;;38.47;18.27;;;5.90;99.90;;;;;;5045869;28;20861;-65
2022/01/14 04:44:55;;;;;;;46.25;18.60;;;5.90;99.90;;;;;;5048382;28;20056;-65
2022/01/14 04:47:44;;;;;;;42.20;17.92;;;5.80;99.90;;;;;;5049897;28;20103;-65
2022/01/14 04:50:17;;;;;;;44.87;16.80;;;5.80;99.90;;;;;;5050307;28;20043;-66
2022/01/14 04:52:45;;;;;;;41.10;18.23;;;5.80;99.90;;;;;;5047577;28;20322;-66
2022/01/14 04:55:12;;;;;;;38.42;17.88;;;5.80;99.90;;;;;;5047704;28;20497;-66
2022/01/14 04:57:39;;;;;;;45.50;19.42;;;5.80;99.90;;;;;;5049183;28;20044;-66
2022/01/14 05:00:08;;;;;;;49.17;19.88;;;5.80;99.90;;;;;;5048798;28;20041;-66
2022/01/14 05:02:34;;;;;;;34.47;18.08;;;5.80;99.90;;;;;;5042816;28;20047;-67
2022/01/14 05:05:01;;;;;;;44.88;19.05;;;5.80;99.90;;;;;;5050209;28;20499;-66
2022/01/14 05:07:27;;;;;;;45.03;20.17;;;5.80;99.90;;;;;;5044165;28;20491;-65
2022/01/14 05:12:33;;;;;;;41.35;19.15;;;5.90;99.90;;;;;;5046819;28;20064;-65
2022/01/14 05:14:58;;;;;;;43.80;18.98;;;5.90;99.90;;;;;;5039537;28;20521;-65
2022/01/14 05:17:24;;;;;;;36.22;18.80;;;6.00;99.90;;;;;;5048457;28;20048;-65
2022/01/14 05:19:50;;;;;;;41.97;19.02;;;6.00;99.90;;;;;;5049212;28;20048;-64
2022/01/14 05:22:17;;;;;;;39.58;18.65;;;6.00;99.90;;;;;;5045835;28;20073;-65
2022/01/14 05:24:43;;;;;;;37.22;19.58;;;6.00;99.90;;;;;;5047180;28;20091;-66
2022/01/14 05:27:09;;;;;;;39.22;17.48;;;6.00;99.90;;;;;;5046324;28;20037;-66
2022/01/14 05:29:34;;;;;;;47.15;19.95;;;6.10;99.90;;;;;;5044854;28;20065;-69
2022/01/14 05:32:05;;;;;;;38.38;18.98;;;6.10;99.90;;;;;;5041828;28;20033;-66
2022/01/14 05:34:32;;;;;;;43.20;18.42;;;6.00;99.90;;;;;;5043419;28;20040;-66
2022/01/14 05:36:58;;;;;;;41.03;18.77;;;6.00;99.90;;;;;;5062492;28;20049;-65
2022/01/14 05:39:24;;;;;;;46.38;18.05;;;6.00;99.90;;;;;;5048701;28;20044;-64
2022/01/14 05:41:50;;;;;;;37.97;17.65;;;6.10;99.90;;;;;;5046758;28;20037;-66
2022/01/14 05:44:16;;;;;;;44.55;20.25;;;6.10;99.90;;;;;;5046738;28;20477;-65
2022/01/14 05:46:42;;;;;;;38.28;18.48;;;6.10;99.90;;;;;;5048415;28;20171;-66
2022/01/14 05:49:07;;;;;;;34.97;18.55;;;6.10;99.90;;;;;;5047450;28;20044;-65
2022/01/14 05:51:33;;;;;;;45.08;17.92;;;6.10;99.90;;;;;;5043826;28;20102;-65
2022/01/14 05:53:59;;;;;;;31.77;15.52;;;6.10;99.90;;;;;;5037208;28;20040;-65
2022/01/14 05:56:25;;;;;;;38.30;17.92;;;6.20;99.90;;;;;;5045999;28;20116;-67
2022/01/14 05:58:51;;;;;;;37.63;17.30;;;6.10;99.90;;;;;;5044934;28;20610;-65
2022/01/14 06:01:16;;;;;;;37.92;18.13;;;6.10;99.90;;;;;;5039869;28;20416;-68
2022/01/14 06:03:42;;;;;;;45.42;17.67;;;6.10;99.90;;;;;;5044345;28;20048;-65
2022/01/14 06:06:08;;;;;;;36.58;18.00;;;6.10;99.90;;;;;;5044248;28;20037;-65
2022/01/14 06:08:33;;;;;;;42.95;16.70;;;6.10;99.90;;;;;;5047078;28;20077;-65
2022/01/14 06:10:59;;;;;;;38.72;17.88;;;6.10;99.90;;;;;;5045253;28;20041;-66
2022/01/14 06:13:25;;;;;;;41.78;17.65;;;6.10;99.90;;;;;;5046111;28;20070;-66
2022/01/14 06:15:50;;;;;;;38.58;16.52;;;6.10;99.90;;;;;;5045490;28;20041;-66
2022/01/14 06:18:16;;;;;;;48.25;18.75;;;6.10;99.90;;;;;;5042873;28;20044;-68
2022/01/14 06:20:42;;;;;;;31.63;17.00;;;6.10;99.90;;;;;;5041848;28;20052;-67
2022/01/14 06:23:08;;;;;;;42.33;17.23;;;6.10;99.90;;;;;;5041555;28;20052;-66
2022/01/14 06:25:34;;;;;;;36.75;17.20;;;6.10;99.90;;;;;;5040688;28;20482;-66
2022/01/14 06:27:59;;;;;;;43.40;16.83;;;6.00;99.90;;;;;;5046600;28;20123;-66
2022/01/14 06:30:25;;;;;;;35.70;17.38;;;6.10;99.90;;;;;;5044600;28;20498;-65
2022/01/14 06:32:52;;;;;;;34.55;17.25;;;6.10;99.90;;;;;;5049731;28;20041;-67
2022/01/14 06:35:18;;;;;;;38.83;17.85;;;6.10;99.90;;;;;;5049406;28;20041;-65
2022/01/14 06:37:44;;;;;;;39.50;16.13;;;6.10;99.90;;;;;;5047978;28;20051;-66
2022/01/14 06:40:10;;;;;;;33.00;17.10;;;6.10;99.90;;;;;;5047842;28;20047;-65
2022/01/14 06:42:36;;;;;;;36.08;14.80;;;6.10;99.90;;;;;;5037262;28;20128;-66
2022/01/14 06:45:03;;;;;;;37.55;16.08;;;6.10;99.90;;;;;;5049618;28;20132;-64
2022/01/14 06:47:29;;;;;;;34.03;15.35;;;6.10;99.90;;;;;;5040763;28;20052;-65
2022/01/14 06:49:55;;;;;;;33.17;15.45;;;6.10;99.90;;;;;;5049253;28;20041;-65
2022/01/14 06:52:21;;;;;;;34.33;14.80;;;6.10;99.90;;;;;;5050330;28;20100;-66
2022/01/14 06:54:47;;;;;;;27.90;14.18;;;6.20;99.90;;;;;;5052793;28;20036;-65
2022/01/14 06:57:13;;;;;;;26.70;14.38;;;6.20;99.90;;;;;;5048540;28;20415;-65
2022/01/14 06:59:39;;;;;;;32.65;14.55;;;6.20;99.90;;;;;;5052107;28;20037;-65
2022/01/14 07:02:04;;;;;;;33.45;14.48;;;6.20;99.90;;;;;;5050910;28;20037;-66
2022/01/14 07:04:30;;;;;;;33.78;14.52;;;6.20;99.90;;;;;;5051715;28;20045;-65
2022/01/14 07:06:55;;;;;;;31.48;12.75;;;6.10;99.90;;;;;;5043706;28;20441;-68
2022/01/14 07:09:21;;;;;;;38.53;14.43;;;6.20;99.90;;;;;;5047282;28;20068;-66
2022/01/14 07:11:52;;;;;;;38.40;14.25;;;6.20;99.90;;;;;;5050342;28;20047;-65
2022/01/14 07:14:19;;;;;;;35.85;11.88;;;6.10;99.90;;;;;;5048606;28;20059;-65
2022/01/14 07:16:45;;;;;;;36.03;12.18;;;6.20;99.90;;;;;;5046680;28;20402;-66
2022/01/14 07:19:12;;;;;;;34.80;12.45;;;6.20;99.90;;;;;;5052605;28;20049;-67
2022/01/14 07:21:39;;;;;;;32.83;12.40;;;6.20;99.90;;;;;;5045921;28;20547;-67
2022/01/14 07:24:05;;;;;;;30.10;12.25;;;6.20;99.90;;;;;;5047534;28;20696;-64
2022/01/14 07:26:31;;;;;;;36.25;11.73;;;6.20;99.90;;;;;;5045327;28;20698;-67
2022/01/14 07:28:57;;;;;;;24.65;11.30;;;6.20;99.90;;;;;;5044449;28;20060;-65
2022/01/14 07:31:22;;;;;;;28.55;11.82;;;6.20;99.90;;;;;;5042541;28;20029;-64
2022/01/14 07:33:48;;;;;;;29.17;11.40;;;6.30;99.90;;;;;;5047044;28;20431;-65
2022/01/14 07:36:13;;;;;;;22.30;10.07;;;6.30;99.90;;;;;;5049215;28;20044;-65
2022/01/14 07:38:39;;;;;;;23.85;10.50;;;6.30;99.90;;;;;;5048555;28;20042;-65
2022/01/14 07:41:05;;;;;;;30.65;10.93;;;6.30;99.90;;;;;;5048796;28;20037;-65
2022/01/14 07:43:31;;;;;;;31.27;11.02;;;6.30;99.90;;;;;;5050758;28;20049;-65
2022/01/14 07:45:57;;;;;;;29.08;9.82;;;6.30;99.90;;;;;;5051714;28;20070;-65
2022/01/14 07:48:23;;;;;;;29.90;10.82;;;6.30;99.90;;;;;;5046482;28;20048;-64
2022/01/14 07:50:49;;;;;;;17.83;8.40;;;6.30;99.90;;;;;;5052646;28;20339;-65
2022/01/14 07:53:14;;;;;;;32.60;10.20;;;6.30;99.90;;;;;;5051447;28;20041;-64
2022/01/14 07:55:41;;;;;;;22.23;9.23;;;6.30;99.90;;;;;;5053999;28;20048;-65
2022/01/14 07:58:07;;;;;;;32.15;10.75;;;6.30;99.90;;;;;;5050703;28;20033;-64
2022/01/14 08:00:35;;;;;;;28.73;9.93;;;6.40;99.90;;;;;;5044337;28;20399;-64
2022/01/14 08:03:01;;;;;;;25.67;8.98;;;6.50;99.90;;;;;;5052550;28;20114;-66
2022/01/14 08:05:27;;;;;;;26.95;9.93;;;6.40;99.90;;;;;;5049595;28;20422;-66
2022/01/14 08:07:56;;;;;;;27.08;9.98;;;6.40;99.90;;;;;;5051321;28;20033;-65
2022/01/14 08:10:21;;;;;;;30.85;8.70;;;6.40;99.90;;;;;;5051351;28;20059;-65
2022/01/14 08:12:47;;;;;;;21.08;8.98;;;6.40;99.90;;;;;;5049048;28;20059;-66
2022/01/14 08:15:13;;;;;;;28.92;8.75;;;6.40;99.90;;;;;;5041077;28;20049;-65
2022/01/14 08:17:39;;;;;;;28.52;8.98;;;6.50;99.90;;;;;;5049137;28;20041;-66
2022/01/14 08:20:06;;;;;;;23.70;8.07;;;6.40;99.90;;;;;;5051275;28;20116;-66
2022/01/14 08:22:32;;;;;;;21.00;8.82;;;6.40;99.90;;;;;;5049675;28;20491;-66
2022/01/14 08:24:59;;;;;;;16.92;7.60;;;6.40;99.90;;;;;;5051014;28;20060;-64
2022/01/14 08:27:26;;;;;;;24.02;7.65;;;6.50;99.90;;;;;;5048413;28;20049;-67
2022/01/14 08:29:52;;;;;;;24.07;8.37;;;6.50;99.90;;;;;;5044868;28;20511;-65
2022/01/14 08:32:18;;;;;;;23.23;8.23;;;6.50;99.90;;;;;;5044600;28;20575;-65
2022/01/14 08:34:44;;;;;;;27.63;8.02;;;6.50;99.90;;;;;;5046045;28;20128;-65
2022/01/14 08:37:10;;;;;;;25.45;7.93;;;6.50;99.90;;;;;;5052075;28;20132;-64
2022/01/14 08:39:35;;;;;;;18.42;8.05;;;6.50;99.90;;;;;;5046014;28;20044;-64
2022/01/14 08:42:03;;;;;;;22.48;8.52;;;6.60;99.90;;;;;;5044364;28;20175;-65
2022/01/14 08:44:29;;;;;;;21.83;9.23;;;6.60;99.90;;;;;;5048147;28;20380;-66
2022/01/14 08:46:55;;;;;;;22.98;7.82;;;7.50;99.90;;;;;;5046248;28;20044;-65
2022/01/14 08:49:22;;;;;;;19.33;7.30;;;6.60;99.90;;;;;;5043538;28;20045;-65
2022/01/14 08:51:49;;;;;;;24.02;7.68;;;6.70;99.90;;;;;;5047863;28;20068;-66
2022/01/14 08:54:15;;;;;;;22.58;7.95;;;6.60;99.90;;;;;;5050208;28;20052;-64
2022/01/14 08:56:41;;;;;;;28.75;7.53;;;6.60;99.90;;;;;;5049294;28;20055;-66
2022/01/14 08:59:07;;;;;;;29.45;9.85;;;6.70;99.90;;;;;;5037076;28;20083;-65
2022/01/14 09:01:34;;;;;;;20.38;7.85;;;6.80;99.90;;;;;;5048868;28;20068;-65
2022/01/14 09:04:01;;;;;;;21.42;7.65;;;6.80;99.90;;;;;;5040307;28;20045;-64
2022/01/14 09:06:27;;;;;;;26.10;7.30;;;6.80;99.90;;;;;;5050475;28;20124;-65
2022/01/14 09:08:53;;;;;;;29.98;7.72;;;6.80;99.90;;;;;;5045653;28;20048;-66
2022/01/14 09:11:19;;;;;;;21.30;7.60;;;6.80;99.90;;;;;;5050940;28;20045;-64
2022/01/14 09:13:45;;;;;;;23.08;6.50;;;6.80;99.90;;;;;;5049900;28;20049;-64
2022/01/14 09:16:11;;;;;;;18.65;6.72;;;6.90;99.90;;;;;;5050820;28;20029;-66
2022/01/14 09:18:36;;;;;;;22.42;6.97;;;6.90;99.90;;;;;;5051111;28;20052;-65
2022/01/14 09:21:03;;;;;;;18.58;6.30;;;6.90;99.90;;;;;;5048252;28;20190;-68
2022/01/14 09:23:29;;;;;;;18.70;6.15;;;6.90;99.90;;;;;;5048518;28;20037;-66
2022/01/14 09:25:56;;;;;;;27.25;5.85;;;7.00;99.90;;;;;;5051085;28;20389;-66
2022/01/14 09:28:21;;;;;;;16.33;5.80;;;7.00;99.90;;;;;;5044121;28;20049;-64
2022/01/14 09:30:47;;;;;;;19.90;6.13;;;7.00;99.90;;;;;;5048771;28;20040;-67
2022/01/14 09:33:17;;;;;;;23.42;5.20;;;7.10;99.90;;;;;;5047770;28;20128;-65
2022/01/14 09:35:44;;;;;;;17.60;5.43;;;7.10;99.90;;;;;;5049414;28;20041;-66
2022/01/14 09:38:09;;;;;;;25.25;5.68;;;7.10;99.90;;;;;;5049774;28;20522;-66
2022/01/14 09:40:36;;;;;;;24.45;5.38;;;7.10;99.90;;;;;;5048709;28;20032;-65
2022/01/14 09:43:02;;;;;;;20.25;5.00;;;7.10;99.90;;;;;;5046812;28;20064;-66
2022/01/14 09:45:28;;;;;;;19.35;5.53;;;7.10;99.90;;;;;;5050469;28;20459;-64
2022/01/14 09:47:55;;;;;;;23.02;5.15;;;7.20;99.90;;;;;;5047570;28;20092;-64
2022/01/14 09:50:22;;;;;;;17.67;4.40;;;7.20;99.90;;;;;;5049936;28;20049;-64
2022/01/14 09:52:51;;;;;;;19.40;4.43;;;7.30;99.90;;;;;;5050322;28;20099;-65
2022/01/14 09:55:21;;;;;;;20.42;4.95;;;7.30;99.90;;;;;;5048711;28;20049;-64
2022/01/14 09:57:48;;;;;;;15.95;4.72;;;7.40;99.90;;;;;;5048411;28;20041;-64
2022/01/14 10:00:14;;;;;;;25.25;4.97;;;7.30;99.90;;;;;;5047680;28;20522;-64
2022/01/14 10:02:43;;;;;;;20.63;4.22;;;7.40;99.90;;;;;;5047993;28;20171;-64
2022/01/14 10:05:28;;;;;;;13.93;4.20;;;7.40;99.90;;;;;;5050452;28;20100;-65
2022/01/14 10:08:21;;;;;;;20.13;4.10;;;7.40;99.90;;;;;;5032595;28;20045;-65
2022/01/14 10:10:54;;;;;;;18.52;4.20;;;7.40;99.90;;;;;;5031674;28;20121;-65
2022/01/14 10:13:23;;;;;;;23.85;5.00;;;7.40;99.90;;;;;;5046288;28;20102;-65
2022/01/14 10:15:59;;;;;;;16.52;3.47;;;7.50;99.90;;;;;;5045316;28;20063;-66
2022/01/14 10:18:25;;;;;;;12.07;3.75;;;7.50;99.90;;;;;;5047273;28;20040;-66
2022/01/14 10:20:51;;;;;;;20.63;4.35;;;7.50;99.90;;;;;;5049853;28;20052;-65
2022/01/14 10:23:17;;;;;;;15.75;3.80;;;7.50;99.90;;;;;;5049204;28;20041;-65
2022/01/14 10:25:56;;;;;;;28.40;4.75;;;7.40;99.90;;;;;;5049419;28;20060;-65
2022/01/14 10:28:22;;;;;;;11.15;3.40;;;7.50;99.90;;;;;;5049064;28;20060;-66
2022/01/14 10:30:49;;;;;;;20.50;4.68;;;7.50;99.90;;;;;;5047405;28;20484;-64
2022/01/14 10:33:20;;;;;;;24.10;4.20;;;7.50;99.90;;;;;;5046607;28;20080;-65
2022/01/14 10:35:46;;;;;;;17.55;3.38;;;7.50;99.90;;;;;;5045922;28;20045;-65
2022/01/14 10:38:23;;;;;;;21.70;4.07;;;7.50;99.90;;;;;;5048000;28;20115;-67
2022/01/14 10:40:50;;;;;;;14.32;3.38;;;7.50;99.90;;;;;;5046831;28;20052;-64
2022/01/14 10:43:18;;;;;;;19.88;4.07;;;7.50;99.90;;;;;;5047443;28;20041;-64
2022/01/14 10:45:45;;;;;;;20.85;4.32;;;7.50;99.90;;;;;;5046386;28;20051;-64
2022/01/14 10:48:29;;;;;;;18.37;3.83;;;7.50;99.90;;;;;;5053338;28;20558;-64
2022/01/14 10:50:59;;;;;;;19.85;4.00;;;7.50;99.90;;;;;;5045972;28;20304;-64
2022/01/14 10:53:43;;;;;;;16.42;3.83;;;7.60;99.90;;;;;;5047250;28;20037;-66
2022/01/14 10:56:13;;;;;;;18.08;4.05;;;7.60;99.90;;;;;;5048778;28;20037;-65
2022/01/14 10:58:42;;;;;;;20.67;3.65;;;8.70;99.90;;;;;;5042670;28;20083;-64
2022/01/14 11:01:18;;;;;;;19.45;4.18;;;7.60;99.90;;;;;;5051522;28;20041;-65
2022/01/14 11:03:45;;;;;;;19.48;3.88;;;7.60;99.90;;;;;;5053137;28;20502;-65
2022/01/14 11:06:40;;;;;;;23.42;4.95;;;7.60;99.90;;;;;;5053615;28;20048;-64
2022/01/14 11:09:14;;;;;;;19.63;4.03;;;7.60;99.90;;;;;;5053830;28;20037;-65
2022/01/14 11:11:45;;;;;;;21.20;4.25;;;7.60;99.90;;;;;;5052802;28;20049;-68
2022/01/14 11:14:11;;;;;;;24.63;4.95;;;7.70;99.90;;;;;;5042310;28;20041;-65
2022/01/14 11:16:38;;;;;;;19.33;4.75;;;7.60;99.90;;;;;;5050944;28;20037;-65
2022/01/14 11:19:07;;;;;;;22.63;4.82;;;7.60;99.90;;;;;;5050678;28;20123;-64
2022/01/14 11:24:27;;;;;;;19.23;4.22;;;7.70;99.90;;;;;;5049967;28;20044;-68
2022/01/14 11:27:20;;;;;;;20.40;4.60;;;7.70;99.90;;;;;;5050954;28;20045;-66
2022/01/14 11:29:47;;;;;;;20.00;4.00;;;7.70;99.90;;;;;;5046080;28;20052;-65
2022/01/14 11:32:14;;;;;;;22.33;5.05;;;7.70;99.90;;;;;;5046715;28;20077;-64
2022/01/14 11:34:46;;;;;;;14.68;3.83;;;7.60;99.90;;;;;;5047193;28;20041;-65
2022/01/14 11:37:16;;;;;;;25.88;5.25;;;7.70;99.90;;;;;;5048145;28;20072;-65
2022/01/14 11:39:58;;;;;;;23.58;4.80;;;7.70;99.90;;;;;;5052300;28;20240;-66
2022/01/14 11:42:46;;;;;;;15.70;4.80;;;7.70;99.90;;;;;;5051752;28;20052;-65
2022/01/14 11:45:17;;;;;;;25.92;4.80;;;7.70;99.90;;;;;;5051971;28;20502;-65
2022/01/14 11:47:44;;;;;;;26.92;5.22;;;7.70;99.90;;;;;;5053316;28;20040;-64
2022/01/14 11:50:19;;;;;;;25.85;5.15;;;7.70;99.90;;;;;;5050401;28;20040;-65
2022/01/14 11:52:47;;;;;;;22.30;4.78;;;7.70;99.90;;;;;;5052685;28;20049;-64
2022/01/14 11:55:22;;;;;;;24.08;5.28;;;7.80;99.90;;;;;;5051587;28;20096;-65
2022/01/14 11:57:49;;;;;;;29.35;5.97;;;7.80;99.90;;;;;;5051685;28;20522;-66
2022/01/14 12:00:30;;;;;;;21.30;4.95;;;7.70;99.90;;;;;;5051536;28;20491;-65
2022/01/14 12:02:57;;;;;;;26.67;6.00;;;7.80;99.90;;;;;;5050772;28;20049;-65
2022/01/14 12:05:30;;;;;;;24.67;5.50;;;7.80;99.90;;;;;;5049103;28;20041;-66
2022/01/14 12:08:02;;;;;;;22.35;5.32;;;7.80;99.90;;;;;;5051169;28;20048;-65
2022/01/14 12:10:32;;;;;;;21.45;5.13;;;7.80;99.90;;;;;;5051099;28;20052;-65
2022/01/14 12:13:23;;;;;;;24.88;4.95;;;7.80;99.90;;;;;;5050795;28;20150;-65
2022/01/14 12:15:57;;;;;;;20.63;5.85;;;7.80;99.90;;;;;;5052743;28;20080;-64
2022/01/14 12:18:57;;;;;;;22.55;4.93;;;8.10;99.90;;;;;;5050222;28;20045;-64
2022/01/14 12:21:40;;;;;;;22.10;5.07;;;7.80;99.90;;;;;;5051235;28;20041;-66
2022/01/14 12:24:15;;;;;;;27.98;5.97;;;7.80;99.90;;;;;;5032670;28;20041;-66
2022/01/14 12:27:04;;;;;;;20.52;4.85;;;7.80;99.90;;;;;;5051497;28;20045;-65
2022/01/14 12:29:36;;;;;;;26.60;6.07;;;7.80;99.90;;;;;;5042018;28;20055;-65
2022/01/14 12:32:10;;;;;;;23.92;5.35;;;7.80;99.90;;;;;;5045264;28;20037;-66
2022/01/14 12:34:57;;;;;;;23.92;5.25;;;7.90;99.90;;;;;;5051888;28;20052;-68
2022/01/14 12:37:39;;;;;;;30.35;5.57;;;7.80;99.90;;;;;;5050871;28;20496;-67
2022/01/14 12:40:10;;;;;;;27.27;5.53;;;7.80;99.90;;;;;;5047634;28;20049;-65
2022/01/14 12:42:37;;;;;;;25.63;5.35;;;7.80;99.90;;;;;;5049679;28;20055;-69
2022/01/14 12:45:05;;;;;;;30.38;6.63;;;9.40;99.90;;;;;;5049605;28;20392;-66
2022/01/14 12:47:38;;;;;;;19.50;5.35;;;7.80;99.90;;;;;;5050303;28;20124;-66
2022/01/14 12:50:10;;;;;;;20.63;5.10;;;7.80;99.90;;;;;;5049118;28;20053;-64
2022/01/14 12:52:50;;;;;;;20.88;5.10;;;7.80;99.90;;;;;;5050033;28;20049;-65
2022/01/14 12:55:17;;;;;;;29.02;5.47;;;7.90;99.90;;;;;;5047527;28;20047;-65
2022/01/14 12:57:43;;;;;;;27.38;4.65;;;7.80;99.90;;;;;;5048514;28;20091;-65
2022/01/14 13:00:11;;;;;;;29.27;5.30;;;7.80;99.90;;;;;;5050678;28;20124;-66
2022/01/14 13:02:38;;;;;;;34.17;6.45;;;7.80;99.90;;;;;;5050062;28;20049;-65
2022/01/14 13:05:05;;;;;;;26.13;5.38;;;7.80;99.90;;;;;;5050252;28;20040;-66
2022/01/14 13:07:32;;;;;;;34.88;5.43;;;7.80;99.90;;;;;;5051033;28;20053;-66
2022/01/14 13:09:58;;;;;;;22.52;4.93;;;7.80;99.90;;;;;;5035132;28;20041;-65
2022/01/14 13:12:29;;;;;;;35.47;6.07;;;7.80;99.90;;;;;;5046208;28;20472;-67
2022/01/14 13:15:01;;;;;;;33.53;5.93;;;7.80;99.90;;;;;;5050148;28;20450;-66